»·PEaware :: UAL515 KGPI-KPDX

UAL515 :: KGPI-KPDX

FLIGHT INFORMATION

Flight Status: Arrived
Operator:
United Airlines
More flights by this operator :: More flights under this callsign
Pilot: Doug L. (8712)
Aircraft: BOEING 717-200
(B712)
More flights by this aircraft type
Origin: KGPI Glacier Park Intl
United States
Destination: KPDX Portland Intl
United States
More flights between these airports :: More routes between these airports
Route: KILLY1 EYCHO JORAD HHOOD4
File this flight plan on PilotEdge
Remarks:
Altitude:
(Current/Filed)
32,000ft
Speed:
(Current/Filed)
450kts
Departed: 06-Jan-19 12:27 PM
Arrived: 06-Jan-19 01:41 PM
Distance/Time
Traveled:
378nm/1:14
Distance/Time
To Go:
Arrived

Flight Plot

Page will automatically refresh every two minutes.

Flight plan parsing failed; only flown route is shown


Map Options




Map Legend


Flown Route
Filed Route
Departure Airport
Arrival Airport
Navaid (VOR, NDB)
Fix

Horizontal Profiles

Position Reports

Time Latitude Longitude Heading Altitude Ground
Speed
06-Jan-19 12:07 48.308429 -114.252761 125 2977ft 0kts
06-Jan-19 12:08 48.308429 -114.252761 125 2977ft 0kts
06-Jan-19 12:09 48.308429 -114.252761 125 2977ft 0kts
06-Jan-19 12:10 48.308429 -114.252761 125 2977ft 0kts
06-Jan-19 12:11 48.308429 -114.252761 125 2977ft 0kts
06-Jan-19 12:12 48.308429 -114.252761 125 2977ft 0kts
06-Jan-19 12:13 48.308429 -114.252761 125 2977ft 0kts
06-Jan-19 12:14 48.308429 -114.252761 125 2977ft 0kts
06-Jan-19 12:15 48.308429 -114.252761 125 2977ft 0kts
06-Jan-19 12:16 48.308429 -114.252761 125 2977ft 0kts
06-Jan-19 12:17 48.308429 -114.252761 125 2977ft 0kts
06-Jan-19 12:18 48.308429 -114.252761 125 2977ft 0kts
06-Jan-19 12:19 48.308429 -114.252761 125 2977ft 0kts
06-Jan-19 12:20 48.308686 -114.253492 105 2977ft 2kts
06-Jan-19 12:21 48.308737 -114.253905 97 2977ft 0kts
06-Jan-19 12:22 48.308737 -114.253904 97 2977ft 0kts
06-Jan-19 12:23 48.309437 -114.253138 2 2977ft 6kts
06-Jan-19 12:24 48.313808 -114.249943 34 2977ft 24kts
06-Jan-19 12:25 48.318345 -114.245572 341 2977ft 6kts
06-Jan-19 12:26 48.312680 -114.253132 214 2978ft 124kts
06-Jan-19 12:27 48.278942 -114.304167 238 5307ft 183kts
06-Jan-19 12:28 48.256160 -114.385364 247 7159ft 242kts
06-Jan-19 12:29 48.220648 -114.453845 225 10097ft 246kts
06-Jan-19 12:30 48.169851 -114.525016 225 12678ft 267kts
06-Jan-19 12:31 48.108093 -114.604531 221 14423ft 302kts
06-Jan-19 12:32 48.042094 -114.685703 220 16798ft 312kts
06-Jan-19 12:33 47.969041 -114.775438 221 17247ft 365kts
06-Jan-19 12:34 47.911552 -114.904114 242 18172ft 383kts
06-Jan-19 12:35 47.866240 -115.043634 241 20751ft 356kts
06-Jan-19 12:36 47.822566 -115.176984 240 22336ft 362kts
06-Jan-19 12:37 47.777827 -115.312972 240 23683ft 370kts
06-Jan-19 12:38 47.731905 -115.451804 239 24886ft 378kts
06-Jan-19 12:39 47.684874 -115.593232 240 25936ft 387kts
06-Jan-19 12:40 47.636682 -115.737348 240 26863ft 394kts
06-Jan-19 12:41 47.587345 -115.884068 240 27731ft 400kts
06-Jan-19 12:42 47.537014 -116.032893 240 28589ft 404kts
06-Jan-19 12:43 47.486443 -116.181560 240 29583ft 404kts
06-Jan-19 12:45 47.435614 -116.330124 241 30357ft 409kts
06-Jan-19 12:46 47.383544 -116.481459 241 30891ft 417kts
06-Jan-19 12:47 47.330843 -116.633740 241 31597ft 418kts
06-Jan-19 12:48 47.278031 -116.785458 241 31665ft 415kts
06-Jan-19 12:49 47.225047 -116.936787 241 31672ft 415kts
06-Jan-19 12:50 47.172238 -117.086753 241 31678ft 414kts
06-Jan-19 12:51 47.118863 -117.237465 241 31682ft 415kts
06-Jan-19 12:52 47.065432 -117.387483 240 31676ft 415kts
06-Jan-19 12:53 47.011996 -117.536664 240 31680ft 413kts
06-Jan-19 12:54 46.958245 -117.685887 240 31674ft 413kts
06-Jan-19 12:55 46.904511 -117.834232 240 31676ft 413kts
06-Jan-19 12:56 46.850444 -117.982665 240 31676ft 413kts
06-Jan-19 12:57 46.796391 -118.130239 241 31677ft 413kts
06-Jan-19 12:58 46.741917 -118.278140 241 31678ft 413kts
06-Jan-19 12:59 46.687471 -118.425162 240 31686ft 412kts
06-Jan-19 13:00 46.632819 -118.571932 240 31689ft 413kts
06-Jan-19 13:01 46.577896 -118.718631 240 31692ft 413kts
06-Jan-19 13:02 46.522765 -118.865085 240 31696ft 413kts
06-Jan-19 13:02 46.476641 -118.987002 240 31699ft 412kts
06-Jan-19 13:03 46.421246 -119.132710 240 31702ft 412kts
06-Jan-19 13:04 46.365851 -119.277637 240 31698ft 411kts
06-Jan-19 13:05 46.310239 -119.422360 241 31695ft 410kts
06-Jan-19 13:07 46.245373 -119.590197 241 31695ft 410kts
06-Jan-19 13:08 46.189500 -119.733948 241 31688ft 409kts
06-Jan-19 13:08 46.143067 -119.852836 241 31684ft 408kts
06-Jan-19 13:09 46.087026 -119.995643 240 31681ft 408kts
06-Jan-19 13:10 46.030872 -120.137995 240 31678ft 409kts
06-Jan-19 13:11 45.974595 -120.279921 241 29561ft 401kts
06-Jan-19 13:12 45.918829 -120.419856 240 27510ft 405kts
06-Jan-19 13:13 45.862181 -120.561269 240 25426ft 408kts
06-Jan-19 13:14 45.809979 -120.705757 247 23590ft 409kts
06-Jan-19 13:15 45.769031 -120.855090 248 21096ft 394kts
06-Jan-19 13:16 45.729498 -120.998818 247 18643ft 381kts
06-Jan-19 13:17 45.691188 -121.137270 247 16962ft 356kts
06-Jan-19 13:18 45.658227 -121.255755 246 16684ft 294kts
06-Jan-19 13:19 45.627708 -121.364862 246 16392ft 295kts
06-Jan-19 13:20 45.597332 -121.473370 246 15249ft 291kts
06-Jan-19 13:21 45.568022 -121.580288 245 15005ft 276kts
06-Jan-19 13:22 45.539564 -121.679167 246 15006ft 268kts
06-Jan-19 13:23 45.532181 -121.787799 268 13278ft 282kts
06-Jan-19 13:24 45.536002 -121.895718 269 11195ft 268kts
06-Jan-19 13:25 45.547442 -122.001110 282 10544ft 271kts
06-Jan-19 13:26 45.568225 -122.101123 282 10251ft 267kts
06-Jan-19 13:27 45.589268 -122.202302 283 9124ft 265kts
06-Jan-19 13:28 45.610255 -122.303843 283 8385ft 275kts
06-Jan-19 13:29 45.631327 -122.406113 283 7311ft 261kts
06-Jan-19 13:30 45.656575 -122.500782 293 5945ft 256kts
06-Jan-19 13:31 45.687350 -122.586183 295 4190ft 233kts
06-Jan-19 13:32 45.717746 -122.663822 296 4003ft 219kts
06-Jan-19 13:33 45.747706 -122.739688 292 3995ft 219kts
06-Jan-19 13:34 45.722629 -122.806989 217 4018ft 208kts
06-Jan-19 13:35 45.673578 -122.802804 124 3300ft 203kts
06-Jan-19 13:36 45.662826 -122.737187 110 2326ft 186kts
06-Jan-19 13:37 45.634095 -122.689048 133 1565ft 146kts
06-Jan-19 13:38 45.612586 -122.641405 118 747ft 145kts
06-Jan-19 13:39 45.593864 -122.593205 117 52ft 135kts
06-Jan-19 13:40 45.586383 -122.576308 208 38ft 7kts
06-Jan-19 13:41 45.586198 -122.576480 225 38ft 5kts
06-Jan-19 13:42 45.588907 -122.583680 298 38ft 24kts
06-Jan-19 13:43 45.590393 -122.589646 294 38ft 9kts
06-Jan-19 13:44 45.590059 -122.591056 210 38ft 0kts
06-Jan-19 13:45 45.590043 -122.591070 210 38ft 0kts
06-Jan-19 13:46 45.590043 -122.591070 210 38ft 0kts
06-Jan-19 13:47 45.590043 -122.591070 210 38ft 0kts

Navigation Log

Ident Type
Flight plan parsing failed, navigation log unavailable